createdAt,value
2023-02-23T00:00:33.326Z,5.87
2023-02-23T00:03:02.062Z,5.75
2023-02-23T00:05:32.126Z,5.89
2023-02-23T00:07:59.293Z,5.84
2023-02-23T00:10:30.647Z,5.60
2023-02-23T00:13:01.113Z,5.49
2023-02-23T00:15:29.896Z,5.23
2023-02-23T00:17:58.000Z,5.33
2023-02-23T00:20:27.499Z,5.33
2023-02-23T00:22:55.924Z,5.19
2023-02-23T00:25:24.214Z,4.92
2023-02-23T00:27:52.543Z,5.46
2023-02-23T00:30:20.667Z,5.41
2023-02-23T00:32:47.613Z,5.75
2023-02-23T00:35:17.734Z,5.57
2023-02-23T00:37:46.176Z,5.49
2023-02-23T00:40:16.493Z,5.85
2023-02-23T00:42:45.286Z,5.41
2023-02-23T00:45:13.959Z,4.98
2023-02-23T00:47:45.497Z,4.78
2023-02-23T00:50:17.382Z,4.65
2023-02-23T00:52:44.872Z,4.85
2023-02-23T00:55:14.150Z,4.79
2023-02-23T00:57:41.820Z,5.11
2023-02-23T01:00:19.833Z,5.21
2023-02-23T01:02:49.831Z,5.32
2023-02-23T01:05:17.059Z,4.82
2023-02-23T01:07:47.117Z,4.55
2023-02-23T01:10:20.363Z,5.28
2023-02-23T01:12:48.904Z,5.02
2023-02-23T01:15:15.941Z,5.25
2023-02-23T01:17:43.241Z,5.36
2023-02-23T01:20:17.966Z,4.93
2023-02-23T01:22:49.830Z,4.58
2023-02-23T01:25:17.721Z,4.18
2023-02-23T01:27:45.349Z,4.41
2023-02-23T01:30:15.127Z,3.75
2023-02-23T01:32:42.051Z,4.19
2023-02-23T01:35:10.464Z,4.40
2023-02-23T01:37:40.695Z,4.86
2023-02-23T01:40:28.786Z,4.65
2023-02-23T01:43:12.501Z,4.56
2023-02-23T01:45:40.756Z,4.53
2023-02-23T01:48:38.129Z,4.91
2023-02-23T01:51:13.977Z,4.83
2023-02-23T01:53:44.636Z,5.01
2023-02-23T01:56:15.434Z,5.31
2023-02-23T01:58:45.666Z,5.16
2023-02-23T02:01:12.953Z,5.16
2023-02-23T02:03:46.929Z,5.13
2023-02-23T02:06:15.881Z,5.26
2023-02-23T02:08:50.970Z,5.27
2023-02-23T02:11:36.270Z,4.84
2023-02-23T02:14:13.348Z,4.70
2023-02-23T02:17:05.100Z,4.92
2023-02-23T02:20:05.570Z,4.94
2023-02-23T02:22:58.322Z,5.30
2023-02-23T02:25:33.820Z,5.22
2023-02-23T02:28:25.634Z,5.23
2023-02-23T02:31:30.390Z,5.32
2023-02-23T02:34:12.497Z,5.06
2023-02-23T02:36:42.282Z,4.99
2023-02-23T02:39:38.132Z,4.75
2023-02-23T02:42:23.217Z,5.05
2023-02-23T02:44:59.407Z,5.60
2023-02-23T02:47:34.814Z,5.20
2023-02-23T02:50:12.636Z,5.14
2023-02-23T02:53:01.631Z,5.36
2023-02-23T02:55:34.545Z,5.49
2023-02-23T02:58:02.835Z,5.44
2023-02-23T03:00:56.724Z,5.57
2023-02-23T03:03:51.449Z,5.69
2023-02-23T03:06:39.242Z,5.91
2023-02-23T03:09:39.592Z,5.63
2023-02-23T03:13:08.656Z,5.19
2023-02-23T03:16:27.058Z,5.34
2023-02-23T03:19:34.255Z,5.32
2023-02-23T03:22:40.979Z,5.21
2023-02-23T03:25:34.542Z,5.33
2023-02-23T03:28:33.202Z,5.17
2023-02-23T03:31:32.922Z,4.54
2023-02-23T03:34:48.186Z,5.13
2023-02-23T03:37:45.100Z,5.59
2023-02-23T03:40:43.814Z,5.15
2023-02-23T03:43:33.788Z,4.97
2023-02-23T03:49:06.804Z,5.40
2023-02-23T03:51:54.576Z,5.77
2023-02-23T03:54:56.328Z,5.67
2023-02-23T03:57:44.680Z,5.55
2023-02-23T04:00:34.851Z,5.36
2023-02-23T04:03:21.376Z,5.03
2023-02-23T04:06:07.359Z,5.12
2023-02-23T04:08:55.928Z,4.97
2023-02-23T04:11:47.095Z,4.67
2023-02-23T04:14:19.010Z,5.18
2023-02-23T04:16:46.080Z,5.26
2023-02-23T04:19:12.991Z,4.74
2023-02-23T04:21:39.853Z,4.68
2023-02-23T04:24:06.773Z,4.81
2023-02-23T04:26:33.634Z,5.19
2023-02-23T04:29:00.587Z,4.91
2023-02-23T04:31:27.754Z,4.88
2023-02-23T04:33:54.742Z,5.30
2023-02-23T04:36:21.433Z,5.25
2023-02-23T04:38:48.324Z,5.08
2023-02-23T04:41:15.201Z,4.87
2023-02-23T04:43:42.041Z,5.45
2023-02-23T04:46:09.283Z,5.41
2023-02-23T04:48:36.247Z,5.60
2023-02-23T04:51:03.217Z,5.39
2023-02-23T04:53:30.088Z,5.46
2023-02-23T04:55:56.940Z,5.42
2023-02-23T04:58:23.609Z,5.79
2023-02-23T05:00:50.528Z,5.67
2023-02-23T05:03:20.432Z,5.40
2023-02-23T05:05:47.421Z,5.18
2023-02-23T05:08:14.353Z,5.06
2023-02-23T05:10:41.232Z,4.72
2023-02-23T05:13:08.146Z,4.93
2023-02-23T05:15:34.997Z,4.90
2023-02-23T05:18:01.690Z,5.34
2023-02-23T05:20:28.580Z,5.64
2023-02-23T05:22:55.450Z,5.52
2023-02-23T05:25:22.158Z,5.18
2023-02-23T05:27:49.019Z,5.02
2023-02-23T05:30:16.048Z,5.11
2023-02-23T05:32:42.958Z,4.97
2023-02-23T05:35:10.043Z,4.97
2023-02-23T05:37:37.008Z,5.15
2023-02-23T05:40:04.489Z,5.09
2023-02-23T05:42:31.336Z,5.30
2023-02-23T05:44:58.008Z,5.76
2023-02-23T05:47:24.907Z,5.90
2023-02-23T05:49:51.860Z,5.46
2023-02-23T05:52:18.744Z,4.90
2023-02-23T05:54:46.872Z,4.98
2023-02-23T05:57:13.775Z,5.18
2023-02-23T05:59:40.766Z,5.77
2023-02-23T06:02:07.664Z,5.92
2023-02-23T06:04:34.569Z,5.50
2023-02-23T06:07:01.489Z,5.57
2023-02-23T06:09:28.397Z,5.23
2023-02-23T06:11:55.344Z,5.27
2023-02-23T06:14:22.157Z,5.96
2023-02-23T06:16:52.002Z,5.66
2023-02-23T06:19:18.955Z,5.88
2023-02-23T06:21:46.884Z,5.50
2023-02-23T06:24:13.794Z,5.11
2023-02-23T06:26:41.568Z,5.40
2023-02-23T06:29:09.232Z,5.58
2023-02-23T06:31:36.200Z,5.15
2023-02-23T06:34:03.175Z,5.33
2023-02-23T06:36:30.411Z,5.31
2023-02-23T06:39:00.382Z,5.72
2023-02-23T06:41:27.472Z,5.44
2023-02-23T06:43:54.368Z,5.20
2023-02-23T06:46:21.468Z,5.09
2023-02-23T06:48:48.390Z,5.32
2023-02-23T06:51:15.331Z,5.47
2023-02-23T06:53:42.182Z,5.91
2023-02-23T06:56:09.512Z,6.06
2023-02-23T06:58:38.533Z,5.57
2023-02-23T07:01:05.591Z,5.59
2023-02-23T07:03:32.623Z,5.71
2023-02-23T07:05:59.636Z,6.05
2023-02-23T07:08:26.570Z,5.84
2023-02-23T07:10:53.410Z,5.76
2023-02-23T07:13:20.874Z,6.17
2023-02-23T07:15:47.786Z,6.25
2023-02-23T07:18:14.647Z,6.06
2023-02-23T07:20:41.380Z,6.25
2023-02-23T07:23:08.265Z,6.16
2023-02-23T07:25:35.410Z,5.96
2023-02-23T07:28:03.342Z,6.13
2023-02-23T07:30:30.306Z,6.44
2023-02-23T07:32:57.231Z,6.40
2023-02-23T07:35:24.095Z,6.24
2023-02-23T07:37:51.012Z,6.08
2023-02-23T07:40:19.513Z,6.26
2023-02-23T07:42:46.355Z,6.52
2023-02-23T07:45:13.054Z,6.70
2023-02-23T07:47:39.979Z,6.96
2023-02-23T07:50:13.047Z,6.63
2023-02-23T07:52:41.340Z,7.03
2023-02-23T07:55:09.035Z,6.69
2023-02-23T07:57:35.953Z,7.20
2023-02-23T08:00:03.219Z,7.14
2023-02-23T08:02:30.144Z,7.22
2023-02-23T08:04:56.989Z,7.72
2023-02-23T08:07:24.658Z,7.34
2023-02-23T08:09:52.012Z,7.68
2023-02-23T08:12:18.896Z,7.81
2023-02-23T08:14:45.872Z,7.66
2023-02-23T08:17:12.875Z,7.72
2023-02-23T08:19:40.273Z,7.94
2023-02-23T08:22:09.918Z,7.96
2023-02-23T08:24:37.583Z,7.86
2023-02-23T08:27:04.764Z,8.06
2023-02-23T08:29:31.701Z,8.16
2023-02-23T08:31:58.762Z,7.95
2023-02-23T08:34:25.753Z,7.93
2023-02-23T08:36:54.035Z,7.97
2023-02-23T08:39:21.745Z,7.82
2023-02-23T08:41:48.658Z,7.73
2023-02-23T08:44:15.615Z,7.99
2023-02-23T08:46:42.792Z,8.01
2023-02-23T08:49:11.628Z,8.08
2023-02-23T08:51:41.664Z,8.10
2023-02-23T08:54:14.385Z,8.04
2023-02-23T08:56:41.768Z,7.84
2023-02-23T08:59:09.515Z,8.21
2023-02-23T09:01:37.376Z,8.09
2023-02-23T09:04:05.679Z,8.15
2023-02-23T09:06:35.334Z,8.24
2023-02-23T09:09:03.096Z,8.11
2023-02-23T09:11:29.980Z,8.00
2023-02-23T09:13:56.876Z,8.57
2023-02-23T09:16:23.854Z,8.25
2023-02-23T09:18:50.709Z,8.60
2023-02-23T09:21:22.433Z,8.39
2023-02-23T09:23:51.484Z,8.06
2023-02-23T09:26:19.272Z,8.46
2023-02-23T09:28:46.682Z,8.56
2023-02-23T09:31:16.951Z,8.54
2023-02-23T09:33:44.014Z,8.50
2023-02-23T09:36:14.617Z,8.70
2023-02-23T09:38:41.501Z,8.78
2023-02-23T09:41:26.604Z,8.77
2023-02-23T09:44:02.281Z,8.91
2023-02-23T09:46:38.934Z,8.96
2023-02-23T09:49:12.923Z,9.08
2023-02-23T09:51:42.659Z,9.66
2023-02-23T09:54:11.952Z,9.62
2023-02-23T09:56:41.373Z,9.11
2023-02-23T09:59:14.783Z,9.40
2023-02-23T10:02:06.383Z,9.32
2023-02-23T10:05:12.030Z,9.17
2023-02-23T10:08:02.694Z,9.03
2023-02-23T10:10:53.187Z,8.72
2023-02-23T10:13:27.747Z,8.86
2023-02-23T10:16:38.058Z,8.84
2023-02-23T10:19:29.494Z,9.16
2023-02-23T10:21:59.986Z,8.79
2023-02-23T10:25:15.225Z,8.98
2023-02-23T10:27:45.631Z,9.09
2023-02-23T10:30:29.245Z,9.29
2023-02-23T10:32:59.452Z,8.84
2023-02-23T10:35:28.758Z,9.22
2023-02-23T10:37:56.828Z,9.38
2023-02-23T10:40:27.747Z,9.39
2023-02-23T10:42:56.064Z,9.04
2023-02-23T10:45:25.706Z,9.56
2023-02-23T10:47:58.819Z,10.12
2023-02-23T10:50:29.272Z,10.31
2023-02-23T10:53:05.057Z,10.56
2023-02-23T10:55:32.903Z,10.33
2023-02-23T10:58:17.058Z,10.18
2023-02-23T11:00:57.439Z,10.68
2023-02-23T11:03:42.885Z,10.63
2023-02-23T11:06:29.735Z,10.42
2023-02-23T11:08:56.837Z,10.70
2023-02-23T11:11:29.019Z,10.68
2023-02-23T11:13:59.974Z,11.12
2023-02-23T11:16:31.558Z,11.05
2023-02-23T11:19:05.732Z,11.55
2023-02-23T11:21:34.638Z,11.45
2023-02-23T11:24:11.945Z,11.12
2023-02-23T11:26:41.877Z,11.81
2023-02-23T11:45:58.432Z,13.91
2023-02-23T11:48:49.254Z,13.51
2023-02-23T11:51:27.633Z,12.88
2023-02-23T11:53:54.754Z,13.43
2023-02-23T11:56:25.706Z,13.72
2023-02-23T11:59:02.404Z,13.79
2023-02-23T12:01:41.889Z,14.19
2023-02-23T12:04:10.290Z,13.52
2023-02-23T12:06:39.977Z,13.43
2023-02-23T12:09:21.258Z,12.67
2023-02-23T12:12:05.302Z,13.09
2023-02-23T12:14:33.785Z,12.54
2023-02-23T12:17:05.415Z,12.88
2023-02-23T12:19:37.191Z,13.36
2023-02-23T12:22:25.825Z,12.51
2023-02-23T12:24:57.877Z,12.38
2023-02-23T12:27:41.721Z,12.25
2023-02-23T12:30:19.128Z,11.83
2023-02-23T12:32:46.897Z,12.13
2023-02-23T12:35:18.642Z,12.23
2023-02-23T12:37:48.853Z,12.56
2023-02-23T12:40:20.029Z,12.66
2023-02-23T12:42:54.619Z,11.99
2023-02-23T12:45:26.842Z,11.85
2023-02-23T12:48:00.967Z,11.70
2023-02-23T12:50:32.357Z,12.21
2023-02-23T12:53:08.334Z,12.21
2023-02-23T12:55:45.323Z,12.34
2023-02-23T12:58:24.925Z,12.34
2023-02-23T13:01:02.688Z,12.37
2023-02-23T13:03:33.112Z,12.53
2023-02-23T13:06:15.151Z,12.41
2023-02-23T13:09:00.360Z,12.44
2023-02-23T13:12:06.918Z,12.59
2023-02-23T13:14:56.185Z,12.75
2023-02-23T13:17:30.226Z,12.75
2023-02-23T13:20:02.063Z,12.87
2023-02-23T13:22:44.033Z,12.72
2023-02-23T13:25:40.240Z,12.69
2023-02-23T13:28:09.671Z,12.97
2023-02-23T13:30:42.616Z,12.86
2023-02-23T13:33:22.112Z,12.60
2023-02-23T13:35:50.291Z,12.31
2023-02-23T13:38:30.216Z,12.34
2023-02-23T13:41:34.341Z,12.24
2023-02-23T13:44:25.290Z,12.38
2023-02-23T13:47:07.194Z,12.53
2023-02-23T13:49:55.412Z,12.60
2023-02-23T13:52:40.094Z,12.40
2023-02-23T13:55:48.721Z,12.38
2023-02-23T13:58:19.477Z,12.23
2023-02-23T14:00:54.452Z,12.40
2023-02-23T14:03:27.614Z,12.19
2023-02-23T14:05:57.811Z,12.13
2023-02-23T14:08:34.774Z,12.36
2023-02-23T14:11:02.018Z,12.09
2023-02-23T14:13:34.185Z,11.81
2023-02-23T14:16:17.162Z,12.24
2023-02-23T14:19:05.702Z,12.22
2023-02-23T14:21:59.176Z,12.31
2023-02-23T14:24:27.606Z,12.55
2023-02-23T14:27:34.506Z,12.45
2023-02-23T14:30:13.386Z,12.41
2023-02-23T14:32:45.654Z,12.82
2023-02-23T14:35:34.328Z,12.67
2023-02-23T14:38:05.609Z,12.57
2023-02-23T14:40:39.826Z,12.45
2023-02-23T14:43:32.467Z,12.14
2023-02-23T14:46:01.419Z,11.76
2023-02-23T14:48:31.401Z,12.15
2023-02-23T14:51:25.335Z,12.18
2023-02-23T14:53:53.997Z,12.23
2023-02-23T14:56:28.051Z,12.30
2023-02-23T14:58:59.091Z,11.91
2023-02-23T15:01:38.171Z,11.62
2023-02-23T15:04:10.640Z,11.94
2023-02-23T15:06:39.519Z,12.24
2023-02-23T15:09:17.021Z,12.13
2023-02-23T15:11:46.468Z,11.91
2023-02-23T15:14:26.879Z,12.25
2023-02-23T15:16:56.227Z,12.15
2023-02-23T15:19:33.634Z,11.86
2023-02-23T15:22:01.245Z,12.38
2023-02-23T15:24:32.056Z,12.55
2023-02-23T15:26:59.053Z,11.91
2023-02-23T15:29:32.006Z,12.01
2023-02-23T15:32:21.514Z,11.74
2023-02-23T15:34:48.748Z,11.93
2023-02-23T15:40:17.040Z,12.22
2023-02-23T15:42:50.354Z,12.15
2023-02-23T15:45:40.497Z,12.39
2023-02-23T15:48:18.415Z,12.21
2023-02-23T15:50:50.364Z,11.95
2023-02-23T15:53:34.568Z,11.82
2023-02-23T15:56:14.415Z,12.14
2023-02-23T15:58:56.480Z,12.28
2023-02-23T16:01:26.727Z,12.12
2023-02-23T16:04:12.257Z,12.27
2023-02-23T16:06:45.796Z,12.27
2023-02-23T16:09:26.145Z,12.28
2023-02-23T16:12:01.781Z,12.29
2023-02-23T16:14:43.950Z,12.35
2023-02-23T16:17:22.411Z,11.83
2023-02-23T16:19:49.366Z,11.68
2023-02-23T16:22:25.870Z,11.67
2023-02-23T16:25:02.802Z,11.65
2023-02-23T16:27:30.129Z,11.47
2023-02-23T16:30:06.944Z,11.30
2023-02-23T16:32:37.055Z,11.68
2023-02-23T16:35:19.659Z,11.60
2023-02-23T16:37:59.520Z,11.43
2023-02-23T16:40:26.395Z,10.95
2023-02-23T16:42:54.071Z,11.47
2023-02-23T16:45:21.855Z,11.67
2023-02-23T16:47:49.501Z,11.26
2023-02-23T16:50:20.753Z,11.47
2023-02-23T16:52:53.702Z,11.58
2023-02-23T16:55:26.142Z,11.48
2023-02-23T16:57:58.735Z,11.49
2023-02-23T17:00:30.337Z,11.82
2023-02-23T17:03:00.701Z,11.69
2023-02-23T17:05:28.620Z,11.87
2023-02-23T17:07:57.717Z,12.07
2023-02-23T17:10:34.874Z,12.21
2023-02-23T17:13:08.225Z,11.84
2023-02-23T17:15:39.672Z,11.69
2023-02-23T17:18:06.707Z,11.36
2023-02-23T17:20:34.286Z,11.40
2023-02-23T17:23:02.349Z,11.11
2023-02-23T17:25:29.560Z,11.25
2023-02-23T17:27:57.516Z,11.41
2023-02-23T17:30:24.822Z,11.18
2023-02-23T17:32:53.119Z,11.33
2023-02-23T17:35:20.232Z,11.14
2023-02-23T17:37:47.519Z,11.10
2023-02-23T17:40:17.544Z,11.34
2023-02-23T17:42:44.592Z,11.68
2023-02-23T17:45:11.594Z,11.39
2023-02-23T17:47:42.816Z,11.37
2023-02-23T17:50:10.679Z,11.08
2023-02-23T17:52:37.596Z,11.01
2023-02-23T17:55:04.697Z,11.23
2023-02-23T17:57:33.094Z,11.00
2023-02-23T17:59:59.966Z,11.27
2023-02-23T18:02:27.620Z,11.22
2023-02-23T18:04:54.473Z,11.33
2023-02-23T18:07:21.829Z,11.50
2023-02-23T18:09:50.291Z,11.56
2023-02-23T18:12:19.536Z,11.72
2023-02-23T18:14:46.877Z,11.68
2023-02-23T18:17:15.776Z,11.78
2023-02-23T18:19:43.334Z,11.80
2023-02-23T18:22:10.863Z,11.75
2023-02-23T18:24:38.281Z,11.88
2023-02-23T18:27:05.474Z,11.51
2023-02-23T18:29:34.376Z,11.86
2023-02-23T18:32:02.451Z,11.61
2023-02-23T18:34:30.292Z,10.26
2023-02-23T18:37:02.382Z,10.32
2023-02-23T18:39:31.218Z,10.01
2023-02-23T18:41:58.780Z,10.07
2023-02-23T18:44:26.502Z,10.06
2023-02-23T18:46:54.984Z,10.46
2023-02-23T18:49:24.644Z,10.57
2023-02-23T18:51:51.598Z,10.19
2023-02-23T18:54:18.996Z,10.66
2023-02-23T18:56:47.379Z,10.31
2023-02-23T18:59:15.538Z,10.20
2023-02-23T19:01:45.470Z,10.29
2023-02-23T19:04:13.078Z,10.52
2023-02-23T19:06:43.453Z,10.99
2023-02-23T19:09:13.473Z,10.77
2023-02-23T19:11:43.705Z,10.87
2023-02-23T19:14:18.345Z,10.53
2023-02-23T19:16:46.896Z,10.80
2023-02-23T19:19:14.346Z,10.56
2023-02-23T19:21:41.340Z,10.71
2023-02-23T19:24:08.629Z,10.69
2023-02-23T19:26:37.379Z,10.72
2023-02-23T19:29:04.783Z,10.73
2023-02-23T19:31:32.190Z,10.87
2023-02-23T19:33:59.875Z,11.12
2023-02-23T19:36:31.917Z,10.99
2023-02-23T19:39:10.620Z,10.59
2023-02-23T19:41:39.680Z,10.48
2023-02-23T19:44:06.804Z,10.22
2023-02-23T19:46:35.070Z,10.24
2023-02-23T19:49:02.024Z,9.82
2023-02-23T19:51:29.195Z,9.98
2023-02-23T19:54:00.136Z,10.33
2023-02-23T19:56:28.182Z,10.43
2023-02-23T19:58:56.026Z,10.37
2023-02-23T20:01:27.605Z,9.63
2023-02-23T20:04:02.030Z,9.27
2023-02-23T20:06:32.131Z,9.05
2023-02-23T20:09:00.261Z,9.24
2023-02-23T20:11:27.662Z,9.48
2023-02-23T20:13:57.129Z,9.49
2023-02-23T20:16:29.727Z,9.81
2023-02-23T20:18:57.644Z,9.79
2023-02-23T20:21:26.898Z,9.63
2023-02-23T20:23:55.424Z,9.89
2023-02-23T20:26:26.627Z,10.62
2023-02-23T20:28:57.999Z,10.23
2023-02-23T20:31:29.151Z,10.58
2023-02-23T20:33:58.710Z,10.34
2023-02-23T20:36:26.157Z,10.00
2023-02-23T20:38:53.358Z,10.29
2023-02-23T20:41:20.860Z,10.31
2023-02-23T20:43:47.921Z,10.49
2023-02-23T20:46:16.554Z,10.50
2023-02-23T20:48:43.809Z,10.40
2023-02-23T20:51:13.871Z,10.66
2023-02-23T20:53:41.126Z,10.60
2023-02-23T20:56:09.780Z,10.89
2023-02-23T20:58:36.986Z,10.88
2023-02-23T21:01:07.071Z,10.80
2023-02-23T21:03:35.740Z,10.61
2023-02-23T21:06:02.680Z,10.72
2023-02-23T21:08:30.579Z,9.77
2023-02-23T21:10:57.492Z,10.23
2023-02-23T21:13:26.602Z,10.12
2023-02-23T21:16:01.296Z,10.21
2023-02-23T21:18:29.350Z,10.25
2023-02-23T21:20:57.016Z,10.18
2023-02-23T21:23:24.677Z,9.76
2023-02-23T21:25:53.397Z,9.23
2023-02-23T21:28:20.901Z,9.92
2023-02-23T21:30:47.796Z,9.90
2023-02-23T21:33:15.312Z,10.09
2023-02-23T21:35:42.195Z,10.41
2023-02-23T21:38:10.590Z,10.10
2023-02-23T21:40:42.313Z,10.13
2023-02-23T21:43:09.420Z,9.99
2023-02-23T21:45:39.231Z,9.41
2023-02-23T21:48:06.107Z,9.66
2023-02-23T21:50:33.125Z,9.43
2023-02-23T21:53:00.112Z,9.61
2023-02-23T21:55:27.014Z,9.49
2023-02-23T21:57:53.892Z,9.51
2023-02-23T22:00:21.908Z,9.70
2023-02-23T22:02:49.442Z,9.71
2023-02-23T22:05:17.568Z,9.85
2023-02-23T22:07:49.048Z,9.54
2023-02-23T22:10:17.717Z,9.70
2023-02-23T22:12:44.702Z,9.55
2023-02-23T22:15:12.022Z,9.76
2023-02-23T22:17:38.887Z,9.23
2023-02-23T22:20:07.468Z,9.90
2023-02-23T22:22:38.151Z,9.68
2023-02-23T22:25:07.029Z,9.57
2023-02-23T22:27:33.919Z,9.46
2023-02-23T22:30:02.113Z,9.66
2023-02-23T22:32:33.183Z,9.87
2023-02-23T22:35:01.052Z,10.08
2023-02-23T22:37:31.681Z,10.19
2023-02-23T22:40:00.326Z,9.98
2023-02-23T22:42:30.845Z,9.47
2023-02-23T22:44:57.792Z,9.49
2023-02-23T22:47:24.829Z,9.38
2023-02-23T22:49:51.783Z,9.74
2023-02-23T22:52:18.677Z,9.93
2023-02-23T22:54:46.518Z,9.85
2023-02-23T22:57:13.669Z,9.96
2023-02-23T22:59:40.531Z,10.31
2023-02-23T23:02:07.404Z,10.01
2023-02-23T23:04:34.677Z,9.98
2023-02-23T23:07:01.821Z,9.77
2023-02-23T23:09:28.764Z,10.09
2023-02-23T23:11:56.837Z,10.01
2023-02-23T23:14:23.756Z,9.26
2023-02-23T23:16:50.744Z,8.94
2023-02-23T23:19:24.352Z,9.25
2023-02-23T23:21:55.360Z,8.58
2023-02-23T23:24:23.965Z,8.68
2023-02-23T23:27:00.360Z,8.73
2023-02-23T23:29:30.221Z,9.02
2023-02-23T23:31:57.483Z,8.87
2023-02-23T23:34:25.386Z,9.02
2023-02-23T23:36:53.418Z,9.06
2023-02-23T23:39:22.508Z,9.17
2023-02-23T23:41:50.375Z,8.83
2023-02-23T23:44:20.007Z,8.93
2023-02-23T23:46:47.360Z,9.45
2023-02-23T23:49:20.512Z,9.08
2023-02-23T23:51:51.057Z,9.32
2023-02-23T23:54:20.231Z,9.08
2023-02-23T23:56:47.647Z,9.44
2023-02-23T23:59:16.622Z,9.53
